Time;durP1;ratioP1;P1;durP2;ratioP2;P2;SDS_P1;SDS_P2;PMS_P1;PMS_P2;Temp;Humidity;BMP_temperature;BMP_pressure;BME280_temperature;BME280_humidity;BME280_pressure;Samples;Min_cycle;Max_cycle;Signal;HPM_P1;HPM_P2
2024/02/17 00:00:53;;;;;;;234.45;61.55;;;;;;;;;;4995746;28;20938;-43
2024/02/17 00:03:22;;;;;;;231.67;58.80;;;;;;;;;;4995601;28;20171;-44
2024/02/17 00:05:49;;;;;;;233.13;58.40;;;;;;;;;;4992819;28;20418;-44
2024/02/17 00:08:15;;;;;;;236.15;61.88;;;;;;;;;;4995474;28;20187;-44
2024/02/17 00:10:41;;;;;;;235.37;61.33;;;;;;;;;;4995179;28;20193;-43
2024/02/17 00:13:07;;;;;;;235.77;61.03;;;;;;;;;;4995188;28;20427;-44
2024/02/17 00:15:33;;;;;;;232.30;59.13;;;;;;;;;;4995065;28;20421;-44
2024/02/17 00:18:02;;;;;;;233.67;59.60;;;;;;;;;;4994872;28;20951;-44
2024/02/17 00:20:28;;;;;;;232.30;59.55;;;;;;;;;;4993348;28;20440;-44
2024/02/17 00:22:54;;;;;;;233.80;60.40;;;;;;;;;;4999291;28;20193;-44
2024/02/17 00:25:20;;;;;;;233.93;61.27;;;;;;;;;;4995216;28;20462;-44
2024/02/17 00:27:46;;;;;;;239.20;65.57;;;;;;;;;;4995180;28;20450;-44
2024/02/17 00:30:12;;;;;;;234.23;61.65;;;;;;;;;;4995660;28;20729;-44
2024/02/17 00:32:38;;;;;;;236.13;63.65;;;;;;;;;;4995548;28;20604;-44
2024/02/17 00:35:04;;;;;;;238.50;64.90;;;;;;;;;;4995145;28;20650;-44
2024/02/17 00:37:31;;;;;;;235.10;62.35;;;;;;;;;;4995544;28;20218;-45
2024/02/17 00:39:57;;;;;;;234.30;62.33;;;;;;;;;;4995111;28;20212;-44
2024/02/17 00:42:23;;;;;;;238.55;65.35;;;;;;;;;;4995139;28;20188;-44
2024/02/17 00:44:49;;;;;;;234.07;61.07;;;;;;;;;;4995142;28;20185;-44
2024/02/17 00:47:15;;;;;;;234.57;63.13;;;;;;;;;;4994750;28;20422;-44
2024/02/17 00:49:41;;;;;;;235.47;63.13;;;;;;;;;;4994783;28;20475;-44
2024/02/17 00:52:07;;;;;;;235.13;63.77;;;;;;;;;;4995211;28;20415;-44
2024/02/17 00:54:33;;;;;;;235.47;63.50;;;;;;;;;;4995040;28;20401;-44
2024/02/17 00:56:59;;;;;;;237.80;63.90;;;;;;;;;;4994577;28;20463;-44
2024/02/17 00:59:25;;;;;;;239.47;66.60;;;;;;;;;;4993973;28;20449;-44
2024/02/17 01:01:51;;;;;;;234.27;63.03;;;;;;;;;;4994994;28;20420;-43
2024/02/17 01:04:17;;;;;;;232.40;60.90;;;;;;;;;;4994770;28;20417;-44
2024/02/17 01:06:43;;;;;;;236.95;63.13;;;;;;;;;;4991606;28;20412;-44
2024/02/17 01:09:10;;;;;;;233.07;61.90;;;;;;;;;;4994118;28;20216;-44
2024/02/17 01:11:36;;;;;;;236.80;65.03;;;;;;;;;;4994819;28;20408;-44
2024/02/17 01:14:02;;;;;;;234.85;62.30;;;;;;;;;;4994382;28;20169;-45
2024/02/17 01:16:28;;;;;;;235.15;62.00;;;;;;;;;;4994711;28;20176;-44
2024/02/17 01:18:56;;;;;;;232.33;61.43;;;;;;;;;;4993432;28;20213;-44
2024/02/17 01:21:22;;;;;;;234.00;63.13;;;;;;;;;;4994706;28;20423;-44
2024/02/17 01:23:48;;;;;;;234.45;60.55;;;;;;;;;;4993411;28;20196;-44
2024/02/17 01:26:14;;;;;;;234.55;62.42;;;;;;;;;;4994216;28;20215;-44
2024/02/17 01:28:40;;;;;;;235.80;63.05;;;;;;;;;;4994255;28;20236;-44
2024/02/17 01:31:06;;;;;;;235.37;62.47;;;;;;;;;;4994593;28;20203;-43
2024/02/17 01:33:32;;;;;;;233.67;60.57;;;;;;;;;;4994227;28;20825;-43
2024/02/17 01:35:58;;;;;;;233.00;61.37;;;;;;;;;;4993901;28;20416;-44
2024/02/17 01:38:24;;;;;;;236.27;64.07;;;;;;;;;;4994417;28;20404;-44
2024/02/17 01:40:50;;;;;;;234.23;62.83;;;;;;;;;;4993962;28;20450;-44
2024/02/17 01:43:16;;;;;;;236.45;64.43;;;;;;;;;;4994276;28;20836;-44
2024/02/17 01:45:42;;;;;;;233.40;61.97;;;;;;;;;;4993958;28;20193;-44
2024/02/17 01:48:09;;;;;;;233.73;62.25;;;;;;;;;;4994253;28;20423;-44
2024/02/17 01:50:35;;;;;;;235.27;63.35;;;;;;;;;;4993521;28;20235;-44
2024/02/17 01:53:01;;;;;;;237.02;64.88;;;;;;;;;;4993868;28;20169;-44
2024/02/17 01:55:28;;;;;;;235.48;63.10;;;;;;;;;;4993391;28;20185;-44
2024/02/17 01:57:54;;;;;;;237.05;65.20;;;;;;;;;;4993774;28;20177;-44
2024/02/17 02:00:21;;;;;;;236.25;63.80;;;;;;;;;;4993440;28;20205;-44
2024/02/17 02:02:49;;;;;;;235.02;63.10;;;;;;;;;;4992590;28;20267;-44
2024/02/17 02:05:15;;;;;;;241.75;68.05;;;;;;;;;;4992777;28;20179;-44
2024/02/17 02:07:41;;;;;;;236.93;63.58;;;;;;;;;;4992787;28;20228;-44
2024/02/17 02:10:08;;;;;;;234.77;61.95;;;;;;;;;;4992440;28;20231;-43
2024/02/17 02:12:33;;;;;;;239.15;65.57;;;;;;;;;;4993396;28;20644;-43
2024/02/17 02:15:03;;;;;;;235.63;63.57;;;;;;;;;;4993568;28;20284;-45
2024/02/17 02:17:29;;;;;;;235.30;62.33;;;;;;;;;;4993176;28;20416;-44
2024/02/17 02:19:55;;;;;;;234.38;62.60;;;;;;;;;;4993754;28;20239;-44
2024/02/17 02:22:21;;;;;;;238.47;66.43;;;;;;;;;;4993074;28;20216;-44
2024/02/17 02:24:49;;;;;;;237.17;64.73;;;;;;;;;;4993453;28;20412;-44
2024/02/17 02:27:15;;;;;;;234.95;62.58;;;;;;;;;;4992997;28;20790;-44
2024/02/17 02:29:47;;;;;;;236.67;65.43;;;;;;;;;;4993188;28;20214;-44
2024/02/17 02:32:13;;;;;;;236.07;63.65;;;;;;;;;;4993488;28;20415;-44
2024/02/17 02:34:39;;;;;;;235.20;64.40;;;;;;;;;;4993192;28;20585;-44
2024/02/17 02:37:05;;;;;;;236.65;65.97;;;;;;;;;;4992925;28;20499;-45
2024/02/17 02:39:31;;;;;;;234.67;63.90;;;;;;;;;;4993357;28;20220;-45
2024/02/17 02:41:57;;;;;;;236.25;63.97;;;;;;;;;;4992967;28;20805;-43
2024/02/17 02:44:23;;;;;;;236.03;63.57;;;;;;;;;;4993248;28;20188;-44
2024/02/17 02:46:49;;;;;;;233.77;62.77;;;;;;;;;;4992702;28;20462;-43
2024/02/17 02:49:16;;;;;;;234.37;62.90;;;;;;;;;;4992796;28;20535;-44
2024/02/17 02:51:42;;;;;;;234.05;62.50;;;;;;;;;;4992968;28;20900;-44
2024/02/17 02:54:08;;;;;;;236.02;64.85;;;;;;;;;;4993002;28;20179;-44
2024/02/17 02:56:34;;;;;;;235.48;65.13;;;;;;;;;;4992503;28;20533;-44
2024/02/17 02:59:00;;;;;;;234.80;64.80;;;;;;;;;;4992583;28;20216;-44
2024/02/17 03:01:26;;;;;;;232.73;63.20;;;;;;;;;;4993590;28;20232;-44
2024/02/17 03:03:52;;;;;;;235.00;64.82;;;;;;;;;;4992766;28;20434;-44
2024/02/17 03:06:18;;;;;;;234.40;63.40;;;;;;;;;;4992752;28;20222;-44
2024/02/17 03:08:44;;;;;;;234.27;63.60;;;;;;;;;;4992413;28;20518;-44
2024/02/17 03:11:14;;;;;;;232.70;63.28;;;;;;;;;;4992422;28;20435;-44
2024/02/17 03:13:40;;;;;;;235.43;64.22;;;;;;;;;;4992464;28;20175;-44
2024/02/17 03:16:06;;;;;;;234.43;62.50;;;;;;;;;;4992453;28;20173;-44
2024/02/17 03:18:32;;;;;;;235.55;64.43;;;;;;;;;;4992814;28;20409;-44
2024/02/17 03:20:58;;;;;;;234.27;63.57;;;;;;;;;;4992721;28;20723;-44
2024/02/17 03:23:25;;;;;;;237.07;64.00;;;;;;;;;;4991997;28;20436;-44
2024/02/17 03:25:51;;;;;;;234.57;63.67;;;;;;;;;;4992020;28;20171;-44
2024/02/17 03:28:17;;;;;;;233.18;62.63;;;;;;;;;;4992107;28;20180;-44
2024/02/17 03:30:43;;;;;;;233.67;62.20;;;;;;;;;;4992111;28;20212;-44
2024/02/17 03:33:09;;;;;;;235.77;65.00;;;;;;;;;;4992085;28;20420;-44
2024/02/17 03:35:36;;;;;;;233.93;62.70;;;;;;;;;;4992148;28;20180;-44
2024/02/17 03:38:02;;;;;;;232.23;61.55;;;;;;;;;;4992046;28;20478;-44
2024/02/17 03:40:28;;;;;;;233.27;63.97;;;;;;;;;;4991755;28;20232;-43
2024/02/17 03:42:54;;;;;;;233.77;63.13;;;;;;;;;;4992140;28;20496;-45
2024/02/17 03:45:20;;;;;;;233.27;63.40;;;;;;;;;;4991800;28;20412;-45
2024/02/17 03:47:46;;;;;;;234.52;63.65;;;;;;;;;;4991887;28;20414;-44
2024/02/17 03:50:12;;;;;;;234.23;63.63;;;;;;;;;;4992029;28;20211;-44
2024/02/17 03:52:38;;;;;;;234.60;64.03;;;;;;;;;;4991740;28;20408;-43
2024/02/17 03:55:04;;;;;;;233.67;62.70;;;;;;;;;;4991750;28;20526;-44
2024/02/17 03:57:30;;;;;;;233.38;62.53;;;;;;;;;;4991784;28;20404;-44
2024/02/17 03:59:56;;;;;;;233.80;62.13;;;;;;;;;;4991817;28;20304;-43
2024/02/17 04:02:22;;;;;;;234.02;62.67;;;;;;;;;;4992232;28;20665;-45
2024/02/17 04:04:48;;;;;;;232.00;61.30;;;;;;;;;;4992551;28;20225;-44
2024/02/17 04:07:14;;;;;;;231.67;61.53;;;;;;;;;;4991864;28;20792;-44
2024/02/17 04:09:40;;;;;;;232.67;61.17;;;;;;;;;;4991399;28;20891;-44
2024/02/17 04:12:06;;;;;;;233.27;61.23;;;;;;;;;;4991733;28;20416;-43
2024/02/17 04:14:35;;;;;;;235.25;62.63;;;;;;;;;;4991565;28;20911;-44
2024/02/17 04:17:02;;;;;;;234.73;64.53;;;;;;;;;;4991888;28;20173;-45
2024/02/17 04:19:28;;;;;;;232.68;61.97;;;;;;;;;;4991564;28;20290;-44
2024/02/17 04:21:54;;;;;;;234.27;64.10;;;;;;;;;;4991829;28;20192;-44
2024/02/17 04:24:20;;;;;;;232.93;61.10;;;;;;;;;;4991614;28;20420;-43
2024/02/17 04:26:46;;;;;;;235.18;63.15;;;;;;;;;;4991299;28;20416;-45
2024/02/17 04:29:16;;;;;;;233.50;62.37;;;;;;;;;;4991505;28;20212;-45
2024/02/17 04:31:42;;;;;;;234.88;64.40;;;;;;;;;;4991205;28;20404;-44
2024/02/17 04:34:08;;;;;;;234.33;62.80;;;;;;;;;;4992466;28;20207;-44
2024/02/17 04:36:34;;;;;;;239.43;66.85;;;;;;;;;;4994506;28;20459;-44
2024/02/17 04:39:00;;;;;;;233.98;62.47;;;;;;;;;;4994728;28;20205;-44
2024/02/17 04:41:27;;;;;;;232.57;61.90;;;;;;;;;;4994896;28;20177;-44
2024/02/17 04:43:52;;;;;;;232.93;63.47;;;;;;;;;;4995336;28;20412;-44
2024/02/17 04:46:18;;;;;;;231.90;61.60;;;;;;;;;;4994740;28;20186;-44
2024/02/17 04:48:44;;;;;;;232.27;62.30;;;;;;;;;;4995090;28;20490;-45
2024/02/17 04:51:10;;;;;;;233.67;62.07;;;;;;;;;;4994927;28;20405;-44
2024/02/17 04:53:36;;;;;;;236.30;64.27;;;;;;;;;;4995212;28;20470;-43
2024/02/17 04:56:03;;;;;;;234.93;63.20;;;;;;;;;;4994589;28;20454;-44
2024/02/17 04:58:28;;;;;;;235.95;64.35;;;;;;;;;;4994557;28;20595;-44
2024/02/17 05:00:54;;;;;;;233.60;61.87;;;;;;;;;;4994873;28;20179;-44
2024/02/17 05:03:20;;;;;;;231.70;60.60;;;;;;;;;;4994719;28;20901;-44
2024/02/17 05:05:46;;;;;;;234.88;63.08;;;;;;;;;;4994350;28;20409;-44
2024/02/17 05:08:13;;;;;;;233.70;63.10;;;;;;;;;;4994603;28;20173;-45
2024/02/17 05:10:39;;;;;;;234.82;62.95;;;;;;;;;;4994668;28;20560;-44
2024/02/17 05:13:05;;;;;;;235.25;63.47;;;;;;;;;;4994465;28;20184;-44
2024/02/17 05:15:32;;;;;;;235.45;63.10;;;;;;;;;;4994142;28;20263;-44
2024/02/17 05:17:58;;;;;;;233.27;62.50;;;;;;;;;;4994555;28;20193;-44
2024/02/17 05:20:24;;;;;;;233.93;62.63;;;;;;;;;;4994308;28;20207;-44
2024/02/17 05:22:50;;;;;;;229.03;60.00;;;;;;;;;;4994421;28;20424;-44
2024/02/17 05:25:18;;;;;;;235.70;63.85;;;;;;;;;;4994023;28;20415;-44
2024/02/17 05:27:43;;;;;;;232.45;61.55;;;;;;;;;;4994129;28;20201;-44
2024/02/17 05:30:10;;;;;;;231.67;60.90;;;;;;;;;;4994168;28;20244;-44
2024/02/17 05:32:36;;;;;;;234.93;62.97;;;;;;;;;;4994052;28;20776;-44
2024/02/17 05:35:02;;;;;;;232.07;62.53;;;;;;;;;;4993899;28;20169;-44
2024/02/17 05:37:28;;;;;;;231.35;60.03;;;;;;;;;;4993981;28;20439;-44
2024/02/17 05:39:54;;;;;;;232.27;63.00;;;;;;;;;;4994076;28;20276;-44
2024/02/17 05:42:20;;;;;;;232.85;63.33;;;;;;;;;;4994399;28;20173;-45
2024/02/17 05:44:46;;;;;;;232.82;61.97;;;;;;;;;;4993527;28;20752;-44
2024/02/17 05:47:12;;;;;;;230.13;60.53;;;;;;;;;;4993780;28;20263;-44
2024/02/17 05:49:38;;;;;;;232.65;62.72;;;;;;;;;;4993612;28;20864;-44
2024/02/17 05:52:04;;;;;;;231.10;60.57;;;;;;;;;;4993956;28;20174;-44
2024/02/17 05:54:30;;;;;;;231.87;62.70;;;;;;;;;;4993760;28;20479;-44
2024/02/17 05:56:56;;;;;;;231.03;62.03;;;;;;;;;;4993069;28;20507;-45
2024/02/17 05:59:22;;;;;;;229.40;60.77;;;;;;;;;;4993678;28;20510;-44
2024/02/17 06:01:48;;;;;;;232.20;63.70;;;;;;;;;;4993211;28;20408;-44
2024/02/17 06:04:14;;;;;;;235.35;65.18;;;;;;;;;;4993217;28;20486;-44
2024/02/17 06:06:40;;;;;;;233.40;63.77;;;;;;;;;;4992621;28;20255;-44
2024/02/17 06:09:06;;;;;;;230.97;62.27;;;;;;;;;;4993185;28;20459;-44
2024/02/17 06:11:32;;;;;;;233.97;65.10;;;;;;;;;;4992698;28;20888;-44
2024/02/17 06:13:58;;;;;;;230.27;61.57;;;;;;;;;;4992790;28;20483;-44
2024/02/17 06:16:26;;;;;;;230.90;61.90;;;;;;;;;;4992497;28;20443;-44
2024/02/17 06:21:37;;;;;;;231.90;61.70;;;;;;;;;;4992778;28;20207;-44
2024/02/17 06:24:03;;;;;;;231.80;61.37;;;;;;;;;;4992587;28;20696;-44
2024/02/17 06:26:30;;;;;;;234.35;62.83;;;;;;;;;;4992444;28;20424;-44
2024/02/17 06:28:57;;;;;;;232.32;61.25;;;;;;;;;;4992437;28;20512;-44
2024/02/17 06:31:23;;;;;;;231.05;60.63;;;;;;;;;;4992436;28;20173;-44
2024/02/17 06:33:50;;;;;;;232.85;60.75;;;;;;;;;;4992331;28;20200;-44
2024/02/17 06:36:16;;;;;;;230.05;60.75;;;;;;;;;;4992125;28;20176;-44
2024/02/17 06:38:42;;;;;;;231.50;61.20;;;;;;;;;;4991264;28;20204;-44
2024/02/17 06:41:10;;;;;;;237.82;67.22;;;;;;;;;;4990370;28;20181;-44
2024/02/17 06:43:37;;;;;;;231.43;61.83;;;;;;;;;;4990964;28;20191;-44
2024/02/17 06:46:11;;;;;;;232.77;62.25;;;;;;;;;;4994411;28;20180;-44
2024/02/17 06:48:37;;;;;;;234.15;61.70;;;;;;;;;;4991224;28;20168;-44
2024/02/17 06:51:03;;;;;;;237.55;67.03;;;;;;;;;;4991241;28;20174;-43
2024/02/17 06:53:29;;;;;;;233.50;62.53;;;;;;;;;;4992799;28;20264;-44
2024/02/17 06:55:55;;;;;;;231.93;62.40;;;;;;;;;;4989879;28;20256;-44
2024/02/17 06:58:21;;;;;;;231.65;61.47;;;;;;;;;;4989990;28;20412;-44
2024/02/17 07:00:47;;;;;;;233.83;64.27;;;;;;;;;;4990943;28;20267;-44
2024/02/17 07:03:14;;;;;;;237.95;66.88;;;;;;;;;;4990670;28;20482;-44
2024/02/17 07:05:41;;;;;;;232.48;64.20;;;;;;;;;;4990991;28;20169;-44
2024/02/17 07:08:11;;;;;;;233.02;62.97;;;;;;;;;;4991524;28;20261;-44
2024/02/17 07:10:37;;;;;;;233.85;63.85;;;;;;;;;;4990895;28;20212;-44
2024/02/17 07:13:04;;;;;;;232.23;62.58;;;;;;;;;;4991472;28;20169;-44
2024/02/17 07:15:30;;;;;;;230.95;61.47;;;;;;;;;;4991360;28;20673;-43
2024/02/17 07:18:00;;;;;;;231.07;62.90;;;;;;;;;;4991241;28;20201;-43
2024/02/17 07:20:27;;;;;;;232.30;62.85;;;;;;;;;;4990037;28;20240;-44
2024/02/17 07:22:53;;;;;;;231.80;62.30;;;;;;;;;;4990825;28;20184;-44
2024/02/17 07:25:19;;;;;;;233.40;63.17;;;;;;;;;;4991214;28;20185;-44
2024/02/17 07:27:46;;;;;;;233.87;64.07;;;;;;;;;;4991232;28;20415;-44
2024/02/17 07:30:12;;;;;;;232.65;62.35;;;;;;;;;;4991259;28;20523;-44
2024/02/17 07:32:39;;;;;;;232.93;62.88;;;;;;;;;;4991137;28;20184;-44
2024/02/17 07:35:05;;;;;;;239.77;67.63;;;;;;;;;;4991119;28;20275;-44
2024/02/17 07:37:31;;;;;;;237.57;66.00;;;;;;;;;;4991122;28;20273;-44
2024/02/17 07:39:57;;;;;;;231.68;61.30;;;;;;;;;;4991216;28;20204;-44
2024/02/17 07:42:23;;;;;;;233.90;63.60;;;;;;;;;;4991282;28;20264;-44
2024/02/17 07:44:49;;;;;;;234.98;64.78;;;;;;;;;;4991088;28;20219;-44
2024/02/17 07:47:15;;;;;;;232.07;62.28;;;;;;;;;;4990682;28;20624;-44
2024/02/17 07:49:41;;;;;;;232.40;63.10;;;;;;;;;;4990917;28;20498;-44
2024/02/17 07:52:07;;;;;;;231.05;62.22;;;;;;;;;;4991204;28;20416;-44
2024/02/17 07:54:33;;;;;;;233.60;64.50;;;;;;;;;;4991054;28;20232;-44
2024/02/17 07:56:59;;;;;;;234.80;64.25;;;;;;;;;;4990779;28;20408;-44
2024/02/17 07:59:25;;;;;;;232.05;61.80;;;;;;;;;;4991020;28;20240;-44
2024/02/17 08:01:51;;;;;;;240.80;70.17;;;;;;;;;;4986724;28;20219;-45
2024/02/17 08:04:17;;;;;;;233.93;62.30;;;;;;;;;;4990348;28;20432;-44
2024/02/17 08:06:43;;;;;;;233.93;63.37;;;;;;;;;;4988226;28;20404;-44
2024/02/17 08:09:09;;;;;;;235.98;66.53;;;;;;;;;;4993571;28;20461;-44
2024/02/17 08:11:35;;;;;;;235.67;66.47;;;;;;;;;;4992462;28;20189;-44
2024/02/17 08:14:04;;;;;;;239.63;73.65;;;;;;;;;;4994643;28;20419;-44
2024/02/17 08:16:30;;;;;;;240.25;73.47;;;;;;;;;;4994335;28;20177;-44
2024/02/17 08:18:56;;;;;;;239.53;76.50;;;;;;;;;;4994511;28;20211;-44
2024/02/17 08:21:24;;;;;;;235.50;68.70;;;;;;;;;;4994696;28;20424;-44
2024/02/17 08:23:51;;;;;;;236.70;67.15;;;;;;;;;;4994650;28;20432;-44
2024/02/17 08:26:17;;;;;;;236.00;68.70;;;;;;;;;;4994559;28;20646;-44
2024/02/17 08:28:43;;;;;;;239.23;73.40;;;;;;;;;;4991870;28;20200;-44
2024/02/17 08:31:09;;;;;;;239.38;72.97;;;;;;;;;;4993812;28;20222;-44
2024/02/17 08:33:36;;;;;;;237.57;73.47;;;;;;;;;;4991085;28;20661;-44
2024/02/17 08:36:02;;;;;;;237.57;71.18;;;;;;;;;;4994035;28;20457;-44
2024/02/17 08:38:28;;;;;;;236.10;65.10;;;;;;;;;;4994180;28;20691;-44
2024/02/17 08:40:54;;;;;;;237.20;69.28;;;;;;;;;;4993840;28;20173;-44
2024/02/17 08:43:20;;;;;;;235.43;68.20;;;;;;;;;;4994110;28;20684;-44
2024/02/17 08:45:46;;;;;;;235.97;69.80;;;;;;;;;;4993769;28;20412;-44
2024/02/17 08:48:12;;;;;;;239.00;70.78;;;;;;;;;;4993423;28;20408;-43
2024/02/17 08:50:38;;;;;;;237.07;66.55;;;;;;;;;;4992399;28;20224;-44
2024/02/17 08:53:04;;;;;;;237.80;66.70;;;;;;;;;;4992643;28;20601;-44
2024/02/17 08:55:30;;;;;;;234.45;65.00;;;;;;;;;;4993645;28;20408;-44
2024/02/17 08:57:56;;;;;;;241.57;74.40;;;;;;;;;;4992603;28;20174;-44
2024/02/17 09:00:24;;;;;;;236.47;67.60;;;;;;;;;;4992463;28;20465;-44
2024/02/17 09:02:50;;;;;;;254.02;80.97;;;;;;;;;;5007824;23;20489;-47
2024/02/17 09:05:16;;;;;;;240.70;73.72;;;;;;;;;;4983415;28;20729;-46
2024/02/17 09:07:42;;;;;;;237.70;67.85;;;;;;;;;;4976785;28;20178;-46
2024/02/17 09:10:08;;;;;;;236.37;67.50;;;;;;;;;;4974376;28;20296;-46
2024/02/17 09:12:34;;;;;;;234.45;65.03;;;;;;;;;;4974752;28;20453;-46
2024/02/17 09:15:00;;;;;;;234.32;66.13;;;;;;;;;;4974573;28;20212;-47
2024/02/17 09:17:26;;;;;;;233.00;65.27;;;;;;;;;;4974211;28;20872;-46
2024/02/17 09:19:52;;;;;;;236.87;67.23;;;;;;;;;;4972321;28;21182;-46
2024/02/17 09:22:18;;;;;;;237.57;66.87;;;;;;;;;;4972672;28;20971;-46
2024/02/17 09:24:44;;;;;;;232.97;63.67;;;;;;;;;;4973316;28;20474;-46
2024/02/17 09:27:10;;;;;;;238.00;67.47;;;;;;;;;;4977882;28;20469;-46
2024/02/17 09:29:36;;;;;;;236.88;67.97;;;;;;;;;;4973167;28;20548;-47
2024/02/17 09:32:02;;;;;;;237.13;68.43;;;;;;;;;;4974218;28;20291;-46
2024/02/17 09:34:30;;;;;;;248.83;73.90;;;;;;;;;;4973039;28;20415;-46
2024/02/17 09:36:56;;;;;;;234.65;66.80;;;;;;;;;;4973782;28;20420;-46
2024/02/17 09:39:26;;;;;;;235.68;65.78;;;;;;;;;;4974075;28;20183;-46
2024/02/17 09:41:53;;;;;;;233.25;62.80;;;;;;;;;;4973969;28;20250;-46
2024/02/17 09:44:19;;;;;;;236.10;67.15;;;;;;;;;;4974096;28;20174;-46
2024/02/17 09:46:45;;;;;;;238.37;68.27;;;;;;;;;;4973498;28;20608;-46
2024/02/17 09:49:15;;;;;;;238.45;68.82;;;;;;;;;;4972377;28;20538;-46
2024/02/17 09:51:45;;;;;;;238.38;67.90;;;;;;;;;;4974506;28;20276;-46
2024/02/17 09:54:12;;;;;;;235.18;67.13;;;;;;;;;;4973941;28;20180;-46
2024/02/17 09:56:38;;;;;;;240.45;70.30;;;;;;;;;;4970916;28;20187;-46
2024/02/17 09:59:04;;;;;;;234.47;67.20;;;;;;;;;;4953609;28;20186;-46
2024/02/17 10:01:30;;;;;;;237.77;69.60;;;;;;;;;;4954288;28;20423;-46
2024/02/17 10:03:56;;;;;;;237.07;69.47;;;;;;;;;;4954424;28;20217;-46
2024/02/17 10:06:24;;;;;;;233.52;66.53;;;;;;;;;;4962387;28;20971;-46
2024/02/17 10:08:50;;;;;;;235.23;66.15;;;;;;;;;;4973453;28;20178;-46
2024/02/17 10:11:16;;;;;;;235.38;66.88;;;;;;;;;;4973506;28;20184;-46
2024/02/17 10:13:42;;;;;;;234.30;64.57;;;;;;;;;;4976267;28;20176;-46
2024/02/17 10:16:12;;;;;;;232.57;64.68;;;;;;;;;;4973259;28;20177;-46
2024/02/17 10:18:42;;;;;;;233.63;65.82;;;;;;;;;;4977662;28;20193;-47
2024/02/17 10:21:08;;;;;;;236.55;67.32;;;;;;;;;;4973445;28;20183;-46
2024/02/17 10:23:34;;;;;;;236.85;67.35;;;;;;;;;;4973242;28;20612;-46
2024/02/17 10:26:00;;;;;;;235.37;66.47;;;;;;;;;;4973071;28;20271;-46
2024/02/17 10:28:27;;;;;;;233.20;65.47;;;;;;;;;;4978389;28;20495;-46
2024/02/17 10:30:53;;;;;;;236.98;68.75;;;;;;;;;;4972642;28;20197;-46
2024/02/17 10:33:20;;;;;;;237.63;67.47;;;;;;;;;;4972394;28;20279;-46
2024/02/17 10:35:46;;;;;;;233.75;65.32;;;;;;;;;;4972712;28;20418;-46
2024/02/17 10:38:13;;;;;;;237.85;69.85;;;;;;;;;;4972961;28;20180;-46
2024/02/17 10:40:39;;;;;;;235.52;66.50;;;;;;;;;;4973181;28;20188;-46
2024/02/17 10:43:05;;;;;;;233.65;66.85;;;;;;;;;;4971696;28;20208;-46
2024/02/17 10:45:31;;;;;;;235.50;67.53;;;;;;;;;;4972701;28;20207;-47
2024/02/17 10:48:02;;;;;;;234.30;67.03;;;;;;;;;;4972720;28;20190;-46
2024/02/17 10:50:29;;;;;;;235.18;68.13;;;;;;;;;;4972676;28;20563;-47
2024/02/17 10:53:15;;;;;;;237.48;69.53;;;;;;;;;;4976756;28;20205;-47
2024/02/17 10:55:43;;;;;;;234.50;65.90;;;;;;;;;;4972107;28;20196;-46
2024/02/17 10:58:15;;;;;;;236.75;68.55;;;;;;;;;;4957818;28;20207;-46
2024/02/17 11:00:45;;;;;;;237.63;70.07;;;;;;;;;;4968282;28;20578;-46
2024/02/17 11:03:12;;;;;;;238.45;69.72;;;;;;;;;;4972548;28;20226;-46
2024/02/17 11:05:41;;;;;;;240.25;71.30;;;;;;;;;;4976025;28;20268;-46
2024/02/17 11:08:07;;;;;;;237.20;68.85;;;;;;;;;;4980438;28;20198;-46
2024/02/17 11:10:33;;;;;;;237.63;67.57;;;;;;;;;;4973514;28;20791;-46
2024/02/17 11:13:01;;;;;;;237.80;68.23;;;;;;;;;;4972246;28;20204;-46
2024/02/17 11:15:28;;;;;;;238.82;70.47;;;;;;;;;;4972075;28;20616;-46
2024/02/17 11:17:58;;;;;;;238.70;69.55;;;;;;;;;;4972404;28;20177;-46
2024/02/17 11:20:25;;;;;;;238.88;71.03;;;;;;;;;;4972372;28;20285;-46
2024/02/17 11:22:52;;;;;;;237.38;67.55;;;;;;;;;;4967909;28;20292;-46
2024/02/17 11:25:39;;;;;;;239.07;70.25;;;;;;;;;;4952966;28;20210;-47
2024/02/17 11:28:09;;;;;;;236.32;67.63;;;;;;;;;;4953076;28;20205;-46
2024/02/17 11:30:54;;;;;;;238.02;69.18;;;;;;;;;;4964491;28;20724;-46
2024/02/17 11:33:22;;;;;;;235.18;67.43;;;;;;;;;;4968998;28;20200;-47
2024/02/17 11:35:49;;;;;;;236.52;66.93;;;;;;;;;;4971552;28;20607;-47
2024/02/17 11:38:25;;;;;;;237.23;67.95;;;;;;;;;;4972006;28;20636;-46
2024/02/17 11:40:55;;;;;;;235.95;67.00;;;;;;;;;;4972180;28;20179;-46
2024/02/17 11:43:25;;;;;;;236.27;68.20;;;;;;;;;;4971525;28;20204;-46
2024/02/17 11:45:54;;;;;;;236.18;67.60;;;;;;;;;;4971900;28;20180;-46
2024/02/17 11:48:20;;;;;;;235.73;68.10;;;;;;;;;;4964615;28;20609;-46
2024/02/17 11:50:46;;;;;;;235.05;66.15;;;;;;;;;;4985214;28;20257;-46
2024/02/17 11:53:13;;;;;;;240.57;70.93;;;;;;;;;;4971161;28;20722;-46
2024/02/17 11:55:40;;;;;;;240.63;70.70;;;;;;;;;;4969898;28;20187;-46
2024/02/17 11:58:08;;;;;;;240.25;71.18;;;;;;;;;;4956910;28;20174;-46
2024/02/17 12:00:38;;;;;;;238.40;69.03;;;;;;;;;;4951748;28;20578;-46
2024/02/17 12:03:05;;;;;;;236.75;68.00;;;;;;;;;;4951277;28;20728;-46
2024/02/17 12:05:31;;;;;;;237.02;69.40;;;;;;;;;;4952365;28;20309;-46
2024/02/17 12:07:57;;;;;;;239.82;71.07;;;;;;;;;;4952364;28;20184;-47
2024/02/17 12:10:26;;;;;;;234.13;68.20;;;;;;;;;;4952597;28;20562;-47
2024/02/17 12:12:52;;;;;;;235.02;66.93;;;;;;;;;;4952667;28;20439;-47
2024/02/17 12:15:18;;;;;;;238.95;69.88;;;;;;;;;;4952340;28;20223;-46
2024/02/17 12:17:44;;;;;;;237.30;69.50;;;;;;;;;;4952428;28;20227;-47
2024/02/17 12:20:15;;;;;;;236.80;70.72;;;;;;;;;;4952574;28;20671;-46
2024/02/17 12:22:49;;;;;;;238.93;70.32;;;;;;;;;;4952359;28;20207;-46
2024/02/17 12:25:16;;;;;;;238.68;69.20;;;;;;;;;;4952365;28;20187;-46
2024/02/17 12:27:42;;;;;;;233.35;65.15;;;;;;;;;;4952353;28;20179;-46
2024/02/17 12:30:09;;;;;;;235.45;66.97;;;;;;;;;;4952337;28;20231;-46
2024/02/17 12:32:35;;;;;;;234.18;65.85;;;;;;;;;;4951257;28;20260;-46
2024/02/17 12:35:14;;;;;;;236.97;70.07;;;;;;;;;;4952429;28;20188;-46
2024/02/17 12:37:43;;;;;;;243.57;74.80;;;;;;;;;;4962673;28;20908;-46
2024/02/17 12:40:13;;;;;;;235.45;66.95;;;;;;;;;;4971477;28;20222;-46
2024/02/17 12:42:39;;;;;;;238.35;68.72;;;;;;;;;;4971269;28;20241;-47
2024/02/17 12:45:05;;;;;;;243.32;74.22;;;;;;;;;;4971011;28;20188;-46
2024/02/17 12:47:31;;;;;;;240.80;72.80;;;;;;;;;;4971464;28;20192;-47
2024/02/17 12:49:57;;;;;;;237.65;69.40;;;;;;;;;;4971587;28;20206;-46
2024/02/17 12:52:28;;;;;;;237.33;69.53;;;;;;;;;;4971397;28;20695;-47
2024/02/17 12:54:57;;;;;;;234.88;68.50;;;;;;;;;;4972476;28;20405;-47
2024/02/17 12:57:23;;;;;;;236.30;68.57;;;;;;;;;;4965966;28;20265;-46
2024/02/17 12:59:50;;;;;;;234.97;67.83;;;;;;;;;;4959442;28;20264;-46
2024/02/17 13:02:16;;;;;;;237.43;68.07;;;;;;;;;;4979440;28;20458;-47
2024/02/17 13:04:42;;;;;;;235.47;66.80;;;;;;;;;;4974915;28;20258;-46
2024/02/17 13:07:08;;;;;;;238.33;70.50;;;;;;;;;;4974285;28;20424;-47
2024/02/17 13:09:34;;;;;;;235.80;67.07;;;;;;;;;;4980722;28;20455;-46
2024/02/17 13:12:00;;;;;;;236.73;68.28;;;;;;;;;;4974465;28;20437;-46
2024/02/17 13:14:26;;;;;;;237.43;69.03;;;;;;;;;;4974755;28;20567;-46
2024/02/17 13:16:53;;;;;;;237.70;69.70;;;;;;;;;;4974601;28;20428;-46
2024/02/17 13:19:19;;;;;;;235.23;68.18;;;;;;;;;;4974444;28;20423;-47
2024/02/17 13:21:45;;;;;;;235.13;69.07;;;;;;;;;;4974467;28;20294;-47
2024/02/17 13:24:13;;;;;;;237.37;70.40;;;;;;;;;;4981730;28;20424;-47
2024/02/17 13:26:38;;;;;;;237.25;70.30;;;;;;;;;;4973927;28;20460;-47
2024/02/17 13:29:04;;;;;;;236.53;66.80;;;;;;;;;;4974445;28;20202;-47
2024/02/17 13:31:30;;;;;;;237.97;68.77;;;;;;;;;;4974276;28;20407;-46
2024/02/17 13:33:56;;;;;;;242.40;74.50;;;;;;;;;;4974212;28;20403;-47
2024/02/17 13:36:22;;;;;;;240.63;71.97;;;;;;;;;;4974084;28;20660;-47
2024/02/17 13:38:48;;;;;;;242.50;75.53;;;;;;;;;;4974098;28;20443;-47
2024/02/17 13:41:14;;;;;;;243.07;77.03;;;;;;;;;;4974389;28;20406;-46
2024/02/17 13:43:40;;;;;;;242.05;74.15;;;;;;;;;;4974253;28;20414;-47
2024/02/17 13:46:06;;;;;;;246.05;79.25;;;;;;;;;;4977005;28;20166;-46
2024/02/17 13:48:32;;;;;;;241.67;75.23;;;;;;;;;;4973938;28;20170;-47
2024/02/17 13:50:58;;;;;;;240.20;74.70;;;;;;;;;;4974018;28;20563;-47
2024/02/17 13:53:24;;;;;;;243.47;77.27;;;;;;;;;;4973769;28;20485;-46
2024/02/17 13:55:50;;;;;;;243.30;76.57;;;;;;;;;;4973490;28;20412;-47
2024/02/17 13:58:16;;;;;;;240.47;73.20;;;;;;;;;;4958223;28;20425;-46
2024/02/17 14:00:42;;;;;;;240.20;76.13;;;;;;;;;;4954341;28;20899;-47
2024/02/17 14:03:08;;;;;;;241.73;75.20;;;;;;;;;;4954308;28;20462;-47